ROMMA est une association bénévole à but non lucratif. Votre soutien est indispensable : ADHERER à ROMMA ou FAIRE un DON

Taninges - (74, Haute-Savoie)

Vallée du Giffre (635 m)   Longitude: 06° 35' 38" E   Latitude: 46° 06' 21" N Station romma n°98
 

Détail journalier du     <<     >>

Température Precipitation Humidité Pression Vent Dir Rafale Dir. rafale Ensol.
Heure (°C) (mm) (%) (hPa) (km/h) (km/h) (min)
01:00 7.7088102503OSO0
02:00 6.509110241OSO5OSO0
03:00 5.6092102503OSO0
04:00 5.1094102403OSO0
05:00 4.2094102402OSO0
06:00 3.9095102503OSO0
07:00 4.0095102403OSO0
08:00 9.109510241E5E50
09:00 12.607510241ESE5ESE60
10:00 15.806610232SSO10OSO60
11:00 17.106410239SO18SO60
12:00 18.6059102310SO24OSO60
13:00 19.8060102312SO24SO60
14:00 21.0055102212OSO23OSO60
15:00 22.2050102212OSO23SO60
16:00 23.2049102110O23ONO60
17:00 23.3047102110O21O60
18:00 23.504510219O19NNO60
19:00 23.104310219O23ONO60
20:00 21.405110215O19NO60
21:00 18.306110202ENE11ENE5
22:00 14.907310211SSE8NE0
23:00 12.8081102203SSE0
minuit 11.0088102202SSE0

Graphique du 31-05-2019

 

Serveur OMMA